createdAt,value
2016-02-10T00:00:13.011Z,0
2016-02-10T00:01:13.748Z,0
2016-02-10T00:02:13.783Z,0
2016-02-10T00:03:13.738Z,0
2016-02-10T00:04:13.741Z,0
2016-02-10T00:05:13.760Z,0
2016-02-10T00:06:13.747Z,0
2016-02-10T00:07:13.751Z,0
2016-02-10T00:08:13.770Z,0
2016-02-10T00:09:13.772Z,0
2016-02-10T00:10:13.745Z,0
2016-02-10T00:11:13.763Z,0
2016-02-10T00:12:13.750Z,0
2016-02-10T00:13:13.738Z,0
2016-02-10T00:14:13.803Z,0
2016-02-10T00:15:13.744Z,0
2016-02-10T00:16:13.767Z,0
2016-02-10T00:17:13.739Z,0
2016-02-10T00:18:13.773Z,0
2016-02-10T00:19:13.009Z,0
2016-02-10T00:20:13.778Z,0
2016-02-10T00:21:13.750Z,0
2016-02-10T00:22:13.736Z,0
2016-02-10T00:23:14.020Z,0
2016-02-10T00:24:13.758Z,0
2016-02-10T00:25:13.748Z,0
2016-02-10T00:26:13.752Z,0
2016-02-10T00:27:13.754Z,0
2016-02-10T00:28:13.756Z,0
2016-02-10T00:29:13.775Z,0
2016-02-10T00:30:13.746Z,0
2016-02-10T00:31:13.764Z,0
2016-02-10T00:32:13.752Z,0
2016-02-10T00:33:13.740Z,0
2016-02-10T00:34:13.743Z,0
2016-02-10T00:35:13.729Z,0
2016-02-10T00:36:13.748Z,0
2016-02-10T00:37:13.766Z,0
2016-02-10T00:38:13.737Z,0
2016-02-10T00:39:13.740Z,0
2016-02-10T00:40:13.746Z,0
2016-02-10T00:41:13.732Z,0
2016-02-10T00:42:12.986Z,0
2016-02-10T00:43:13.754Z,0
2016-02-10T00:44:13.756Z,0
2016-02-10T00:45:13.729Z,0
2016-02-10T00:46:13.731Z,0
2016-02-10T00:47:13.781Z,0
2016-02-10T00:48:13.721Z,0
2016-02-10T00:49:13.739Z,0
2016-02-10T00:50:13.742Z,0
2016-02-10T00:51:13.729Z,0
2016-02-10T00:52:13.716Z,0
2016-02-10T00:53:13.733Z,0
2016-02-10T00:54:13.722Z,0
2016-02-10T00:55:13.708Z,0
2016-02-10T00:56:13.773Z,0
2016-02-10T00:57:13.714Z,0
2016-02-10T00:58:13.700Z,0
2016-02-10T00:59:13.735Z,0
2016-02-10T01:00:13.722Z,0
2016-02-10T01:01:13.724Z,0
2016-02-10T01:02:13.711Z,0
2016-02-10T01:03:13.730Z,0
2016-02-10T01:04:13.717Z,0
2016-02-10T01:05:13.719Z,0
2016-02-10T01:06:13.706Z,0
2016-02-10T01:07:13.725Z,0
2016-02-10T01:08:13.712Z,0
2016-02-10T01:09:13.698Z,0
2016-02-10T01:10:13.720Z,0
2016-02-10T01:11:13.690Z,0
2016-02-10T01:12:13.693Z,0
2016-02-10T01:13:13.696Z,0
2016-02-10T01:14:13.698Z,0
2016-02-10T01:15:13.686Z,0
2016-02-10T01:16:13.704Z,0
2016-02-10T01:17:13.706Z,0
2016-02-10T01:18:13.678Z,0
2016-02-10T01:19:13.697Z,0
2016-02-10T01:20:13.683Z,0
2016-02-10T01:21:13.515Z,0
2016-02-10T01:22:13.689Z,0
2016-02-10T01:23:13.676Z,0
2016-02-10T01:24:13.679Z,0
2016-02-10T01:25:13.697Z,0
2016-02-10T01:26:13.672Z,0
2016-02-10T01:27:13.658Z,0
2016-02-10T01:28:13.677Z,0
2016-02-10T01:29:13.680Z,0
2016-02-10T01:30:13.666Z,0
2016-02-10T01:31:13.669Z,0
2016-02-10T01:32:13.672Z,0
2016-02-10T01:33:13.705Z,0
2016-02-10T01:34:13.648Z,0
2016-02-10T01:35:13.681Z,0
2016-02-10T01:36:13.512Z,0
2016-02-10T01:37:13.655Z,0
2016-02-10T01:38:13.658Z,0
2016-02-10T01:39:13.660Z,0
2016-02-10T01:40:13.663Z,0
2016-02-10T01:41:13.492Z,0
2016-02-10T01:42:13.667Z,0
2016-02-10T01:43:13.640Z,0
2016-02-10T01:44:13.642Z,0
2016-02-10T01:45:13.628Z,0
2016-02-10T01:46:13.648Z,0
2016-02-10T01:47:13.634Z,0
2016-02-10T01:48:13.620Z,0
2016-02-10T01:49:13.640Z,0
2016-02-10T01:50:13.626Z,0
2016-02-10T01:51:13.630Z,0
2016-02-10T01:52:13.665Z,0
2016-02-10T01:53:13.620Z,0
2016-02-10T01:54:13.623Z,0
2016-02-10T01:55:13.500Z,0
2016-02-10T01:56:13.675Z,0
2016-02-10T01:57:13.599Z,0
2016-02-10T01:58:13.634Z,0
2016-02-10T01:59:13.621Z,0
2016-02-10T02:00:13.609Z,0
2016-02-10T02:01:13.627Z,0
2016-02-10T02:02:13.629Z,0
2016-02-10T02:03:13.632Z,0
2016-02-10T02:04:13.635Z,0
2016-02-10T02:05:13.590Z,0
2016-02-10T02:06:13.593Z,0
2016-02-10T02:07:13.598Z,0
2016-02-10T02:08:13.601Z,0
2016-02-10T02:09:13.588Z,0
2016-02-10T02:10:13.591Z,0
2016-02-10T02:11:13.595Z,0
2016-02-10T02:12:13.582Z,0
2016-02-10T02:13:13.585Z,0
2016-02-10T02:14:13.588Z,0
2016-02-10T02:15:13.590Z,0
2016-02-10T02:16:13.577Z,0
2016-02-10T02:17:13.596Z,0
2016-02-10T02:18:13.582Z,0
2016-02-10T02:19:13.570Z,0
2016-02-10T02:20:13.588Z,0
2016-02-10T02:21:13.590Z,0
2016-02-10T02:22:13.562Z,0
2016-02-10T02:23:13.565Z,0
2016-02-10T02:24:13.583Z,0
2016-02-10T02:25:13.554Z,0
2016-02-10T02:26:13.398Z,0
2016-02-10T02:27:13.558Z,0
2016-02-10T02:28:13.545Z,0
2016-02-10T02:29:13.563Z,0
2016-02-10T02:30:13.566Z,0
2016-02-10T02:31:13.554Z,0
2016-02-10T02:32:13.541Z,0
2016-02-10T02:33:13.528Z,0
2016-02-10T02:34:13.562Z,0
2016-02-10T02:35:13.533Z,0
2016-02-10T02:36:13.520Z,0
2016-02-10T02:37:13.522Z,0
2016-02-10T02:38:13.542Z,0
2016-02-10T02:39:13.512Z,0
2016-02-10T02:40:13.531Z,0
2016-02-10T02:41:13.534Z,0
2016-02-10T02:42:13.505Z,0
2016-02-10T02:43:13.511Z,0
2016-02-10T02:44:13.357Z,0
2016-02-10T02:45:13.531Z,0
2016-02-10T02:46:13.519Z,0
2016-02-10T02:47:13.490Z,0
2016-02-10T02:48:13.508Z,0
2016-02-10T02:49:13.511Z,0
2016-02-10T02:50:13.498Z,0
2016-02-10T02:51:13.516Z,0
2016-02-10T02:52:13.333Z,0
2016-02-10T02:53:13.489Z,0
2016-02-10T02:54:13.482Z,0
2016-02-10T02:55:13.441Z,0
2016-02-10T02:56:13.557Z,0
2016-02-10T02:57:13.440Z,0
2016-02-10T02:58:13.417Z,0
2016-02-10T02:59:13.415Z,0
2016-02-10T03:00:13.400Z,0
2016-02-10T03:01:13.399Z,0
2016-02-10T03:02:13.413Z,0
2016-02-10T03:03:13.365Z,0
2016-02-10T03:04:13.273Z,0
2016-02-10T03:05:13.398Z,0
2016-02-10T03:06:13.384Z,0
2016-02-10T03:07:13.370Z,0
2016-02-10T03:08:13.372Z,0
2016-02-10T03:09:13.203Z,0
2016-02-10T03:10:13.361Z,0
2016-02-10T03:11:13.363Z,0
2016-02-10T03:12:13.350Z,0
2016-02-10T03:13:13.342Z,0
2016-02-10T03:14:13.331Z,0
2016-02-10T03:15:13.348Z,0
2016-02-10T03:16:13.335Z,0
2016-02-10T03:17:13.183Z,0
2016-02-10T03:18:13.325Z,0
2016-02-10T03:19:13.327Z,0
2016-02-10T03:20:13.317Z,0
2016-02-10T03:21:13.336Z,0
2016-02-10T03:22:13.322Z,0
2016-02-10T03:23:13.310Z,0
2016-02-10T03:24:13.328Z,0
2016-02-10T03:25:13.330Z,0
2016-02-10T03:26:13.302Z,0
2016-02-10T03:27:13.321Z,0
2016-02-10T03:28:13.293Z,0
2016-02-10T03:29:13.295Z,0
2016-02-10T03:30:13.282Z,0
2016-02-10T03:31:13.300Z,0
2016-02-10T03:32:13.288Z,0
2016-02-10T03:33:13.290Z,0
2016-02-10T03:34:13.308Z,0
2016-02-10T03:35:13.265Z,0
2016-02-10T03:36:13.267Z,0
2016-02-10T03:37:13.285Z,0
2016-02-10T03:38:13.273Z,0
2016-02-10T03:39:13.290Z,0
2016-02-10T03:40:13.293Z,0
2016-02-10T03:41:13.249Z,0
2016-02-10T03:42:13.236Z,0
2016-02-10T03:43:13.254Z,0
2016-02-10T03:44:13.123Z,0
2016-02-10T03:45:13.250Z,0
2016-02-10T03:46:13.237Z,0
2016-02-10T03:47:13.240Z,0
2016-02-10T03:48:13.242Z,0
2016-02-10T03:49:13.230Z,0
2016-02-10T03:50:13.233Z,0
2016-02-10T03:51:13.252Z,0
2016-02-10T03:52:13.239Z,0
2016-02-10T03:53:13.227Z,0
2016-02-10T03:54:13.229Z,0
2016-02-10T03:55:13.232Z,0
2016-02-10T03:56:13.235Z,0
2016-02-10T03:57:13.221Z,0
2016-02-10T03:58:13.209Z,0
2016-02-10T03:59:13.196Z,0
2016-02-10T04:00:13.215Z,0
2016-02-10T04:01:13.232Z,0
2016-02-10T04:02:13.204Z,0
2016-02-10T04:03:13.191Z,0
2016-02-10T04:04:13.131Z,0
2016-02-10T04:05:13.181Z,0
2016-02-10T04:06:13.167Z,0
2016-02-10T04:07:13.187Z,0
2016-02-10T04:08:13.189Z,0
2016-02-10T04:09:13.192Z,0
2016-02-10T04:10:13.196Z,0
2016-02-10T04:11:13.151Z,0
2016-02-10T04:12:13.169Z,0
2016-02-10T04:13:13.171Z,0
2016-02-10T04:14:13.143Z,0
2016-02-10T04:15:13.177Z,0
2016-02-10T04:16:13.134Z,0
2016-02-10T04:17:13.153Z,0
2016-02-10T04:18:13.140Z,0
2016-02-10T04:19:13.143Z,0
2016-02-10T04:20:13.145Z,0
2016-02-10T04:21:13.164Z,0
2016-02-10T04:22:12.370Z,0
2016-02-10T04:23:13.139Z,0
2016-02-10T04:24:13.141Z,0
2016-02-10T04:25:13.128Z,0
2016-02-10T04:26:13.120Z,0
2016-02-10T04:27:13.154Z,0
2016-02-10T04:28:13.125Z,0
2016-02-10T04:29:13.113Z,0
2016-02-10T04:30:13.115Z,0
2016-02-10T04:31:13.102Z,0
2016-02-10T04:32:13.090Z,0
2016-02-10T04:33:13.092Z,0
2016-02-10T04:34:13.110Z,0
2016-02-10T04:35:13.097Z,0
2016-02-10T04:36:13.085Z,0
2016-02-10T04:37:13.087Z,0
2016-02-10T04:38:13.074Z,0
2016-02-10T04:39:13.062Z,0
2016-02-10T04:40:13.126Z,0
2016-02-10T04:41:13.067Z,0
2016-02-10T04:42:13.117Z,0
2016-02-10T04:43:13.088Z,0
2016-02-10T04:44:13.060Z,0
2016-02-10T04:45:13.078Z,0
2016-02-10T04:46:13.038Z,0
2016-02-10T04:47:13.041Z,0
2016-02-10T04:48:13.044Z,0
2016-02-10T04:49:13.030Z,0
2016-02-10T04:50:13.064Z,0
2016-02-10T04:51:13.036Z,0
2016-02-10T04:52:13.023Z,0
2016-02-10T04:53:13.026Z,0
2016-02-10T04:54:13.029Z,0
2016-02-10T04:55:13.016Z,0
2016-02-10T04:56:13.051Z,0
2016-02-10T04:57:13.194Z,0
2016-02-10T04:58:12.993Z,0
2016-02-10T04:59:13.011Z,0
2016-02-10T05:00:12.999Z,0
2016-02-10T05:01:13.017Z,0
2016-02-10T05:02:12.989Z,0
2016-02-10T05:03:12.976Z,0
2016-02-10T05:04:12.994Z,0
2016-02-10T05:05:12.982Z,0
2016-02-10T05:06:12.969Z,0
2016-02-10T05:07:12.971Z,0
2016-02-10T05:08:12.975Z,0
2016-02-10T05:09:12.992Z,0
2016-02-10T05:10:12.980Z,0
2016-02-10T05:11:12.954Z,0
2016-02-10T05:12:12.956Z,0
2016-02-10T05:13:12.975Z,0
2016-02-10T05:14:12.947Z,0
2016-02-10T05:15:12.964Z,0
2016-02-10T05:16:12.935Z,0
2016-02-10T05:17:12.970Z,0
2016-02-10T05:18:12.948Z,0
2016-02-10T05:19:12.935Z,0
2016-02-10T05:20:12.923Z,0
2016-02-10T05:21:12.940Z,0
2016-02-10T05:22:12.913Z,0
2016-02-10T05:23:12.931Z,0
2016-02-10T05:24:12.933Z,0
2016-02-10T05:25:12.904Z,0
2016-02-10T05:26:12.923Z,0
2016-02-10T05:27:12.895Z,0
2016-02-10T05:28:12.913Z,0
2016-02-10T05:29:12.932Z,0
2016-02-10T05:30:12.887Z,0
2016-02-10T05:31:12.907Z,0
2016-02-10T05:32:12.878Z,0
2016-02-10T05:33:12.864Z,0
2016-02-10T05:34:12.884Z,0
2016-02-10T05:35:12.870Z,0
2016-02-10T05:36:12.873Z,0
2016-02-10T05:37:12.877Z,0
2016-02-10T05:38:12.864Z,0
2016-02-10T05:39:12.867Z,0
2016-02-10T05:40:12.855Z,0
2016-02-10T05:41:12.857Z,0
2016-02-10T05:42:12.874Z,0
2016-02-10T05:43:12.878Z,0
2016-02-10T05:44:12.849Z,0
2016-02-10T05:45:12.851Z,0
2016-02-10T05:46:12.824Z,0
2016-02-10T05:47:12.857Z,0
2016-02-10T05:48:12.831Z,0
2016-02-10T05:49:12.818Z,0
2016-02-10T05:50:12.836Z,0
2016-02-10T05:51:12.823Z,0
2016-02-10T05:52:12.825Z,0
2016-02-10T05:53:12.828Z,0
2016-02-10T05:54:12.801Z,0
2016-02-10T05:55:12.803Z,0
2016-02-10T05:56:12.853Z,0
2016-02-10T05:57:12.792Z,0
2016-02-10T05:58:12.780Z,0
2016-02-10T05:59:12.814Z,0
2016-02-10T06:00:13.019Z,0
2016-02-10T06:01:12.803Z,0
2016-02-10T06:02:12.774Z,0
2016-02-10T06:03:12.779Z,0
2016-02-10T06:04:12.781Z,0
2016-02-10T06:05:12.768Z,0
2016-02-10T06:06:12.770Z,0
2016-02-10T06:07:12.773Z,0
2016-02-10T06:08:12.761Z,0
2016-02-10T06:09:12.747Z,0
2016-02-10T06:10:12.766Z,0
2016-02-10T06:11:12.753Z,0
2016-02-10T06:12:12.742Z,0
2016-02-10T06:13:12.761Z,0
2016-02-10T06:14:12.732Z,0
2016-02-10T06:15:12.750Z,0
2016-02-10T06:16:12.724Z,0
2016-02-10T06:17:12.742Z,0
2016-02-10T06:18:12.713Z,0
2016-02-10T06:19:12.715Z,0
2016-02-10T06:20:12.735Z,0
2016-02-10T06:21:12.722Z,0
2016-02-10T06:22:12.710Z,0
2016-02-10T06:23:12.806Z,0
2016-02-10T06:24:12.714Z,0
2016-02-10T06:25:12.687Z,0
2016-02-10T06:26:12.704Z,5
2016-02-10T06:27:12.692Z,5
2016-02-10T06:28:12.680Z,5
2016-02-10T06:29:12.682Z,5
2016-02-10T06:30:12.685Z,5
2016-02-10T06:31:12.703Z,5
2016-02-10T06:32:12.674Z,5
2016-02-10T06:33:12.677Z,5
2016-02-10T06:34:11.915Z,5
2016-02-10T06:35:12.667Z,5
2016-02-10T06:36:12.654Z,10
2016-02-10T06:37:12.657Z,10
2016-02-10T06:38:12.643Z,10
2016-02-10T06:39:12.646Z,10
2016-02-10T06:40:12.649Z,10
2016-02-10T06:41:11.886Z,10
2016-02-10T06:42:12.623Z,10
2016-02-10T06:43:12.642Z,15
2016-02-10T06:44:12.628Z,15
2016-02-10T06:45:12.632Z,15
2016-02-10T06:46:12.619Z,15
2016-02-10T06:47:12.656Z,15
2016-02-10T06:48:12.611Z,15
2016-02-10T06:49:12.598Z,20
2016-02-10T06:50:12.617Z,20
2016-02-10T06:51:12.604Z,20
2016-02-10T06:52:12.606Z,25
2016-02-10T06:53:12.593Z,25
2016-02-10T06:54:12.581Z,25
2016-02-10T06:55:12.600Z,25
2016-02-10T06:56:12.635Z,30
2016-02-10T06:57:12.590Z,30
2016-02-10T06:58:12.593Z,30
2016-02-10T06:59:12.580Z,35
2016-02-10T07:00:12.583Z,35
2016-02-10T07:01:12.570Z,35
2016-02-10T07:02:12.573Z,35
2016-02-10T07:03:12.590Z,40
2016-02-10T07:04:11.829Z,40
2016-02-10T07:05:12.536Z,40
2016-02-10T07:06:12.553Z,40
2016-02-10T07:07:12.573Z,40
2016-02-10T07:08:12.544Z,40
2016-02-10T07:09:12.562Z,40
2016-02-10T07:10:12.534Z,45
2016-02-10T07:11:12.522Z,45
2016-02-10T07:12:12.538Z,45
2016-02-10T07:13:12.528Z,45
2016-02-10T07:14:12.515Z,45
2016-02-10T07:15:12.549Z,50
2016-02-10T07:16:12.505Z,50
2016-02-10T07:17:12.523Z,50
2016-02-10T07:18:12.501Z,55
2016-02-10T07:19:12.504Z,55
2016-02-10T07:20:12.492Z,50
2016-02-10T07:21:12.509Z,50
2016-02-10T07:22:12.481Z,50
2016-02-10T07:23:12.514Z,50
2016-02-10T07:24:12.502Z,50
2016-02-10T07:25:12.474Z,55
2016-02-10T07:26:12.491Z,55
2016-02-10T07:27:12.494Z,60
2016-02-10T07:28:12.466Z,60
2016-02-10T07:29:12.484Z,65
2016-02-10T07:30:12.472Z,65
2016-02-10T07:31:12.491Z,70
2016-02-10T07:32:12.447Z,70
2016-02-10T07:33:12.449Z,70
2016-02-10T07:34:12.467Z,70
2016-02-10T07:35:12.439Z,70
2016-02-10T07:36:12.425Z,70
2016-02-10T07:37:12.444Z,70
2016-02-10T07:38:12.449Z,70
2016-02-10T07:39:12.435Z,70
2016-02-10T07:40:12.423Z,75
2016-02-10T07:41:12.426Z,75
2016-02-10T07:42:12.428Z,80
2016-02-10T07:43:12.415Z,85
2016-02-10T07:44:12.418Z,85
2016-02-10T07:45:12.421Z,85
2016-02-10T07:46:12.409Z,85
2016-02-10T07:47:12.427Z,85
2016-02-10T07:48:12.508Z,85
2016-02-10T07:49:12.401Z,85
2016-02-10T07:50:12.405Z,90
2016-02-10T07:51:12.876Z,90
2016-02-10T07:52:13.005Z,90
2016-02-10T07:53:12.928Z,95
2016-02-10T07:54:12.931Z,95
2016-02-10T07:55:12.981Z,95
2016-02-10T07:56:13.561Z,95
2016-02-10T07:57:13.127Z,95
2016-02-10T07:58:13.160Z,95
2016-02-10T07:59:12.569Z,100
2016-02-10T08:00:13.337Z,100
2016-02-10T08:01:13.122Z,105
2016-02-10T08:02:12.921Z,105
2016-02-10T08:03:13.004Z,105
2016-02-10T08:04:13.007Z,110
2016-02-10T08:05:12.947Z,110
2016-02-10T08:06:12.920Z,115
2016-02-10T08:07:12.861Z,115
2016-02-10T08:08:12.879Z,115
2016-02-10T08:09:13.507Z,115
2016-02-10T08:10:12.822Z,115
2016-02-10T08:11:12.856Z,115
2016-02-10T08:12:12.843Z,115
2016-02-10T08:13:12.814Z,120
2016-02-10T08:14:13.116Z,120
2016-02-10T08:15:13.072Z,125
2016-02-10T08:16:12.982Z,130
2016-02-10T08:17:12.844Z,130
2016-02-10T08:18:12.924Z,130
2016-02-10T08:19:12.838Z,130
2016-02-10T08:20:13.029Z,130
2016-02-10T08:21:13.031Z,130
2016-02-10T08:22:13.081Z,130
2016-02-10T08:23:12.975Z,135
2016-02-10T08:24:12.868Z,135
2016-02-10T08:25:12.887Z,140
2016-02-10T08:26:12.718Z,140
2016-02-10T08:27:12.923Z,145
2016-02-10T08:28:12.677Z,145
2016-02-10T08:29:12.805Z,150
2016-02-10T08:30:13.104Z,150
2016-02-10T08:31:12.670Z,155
2016-02-10T08:32:12.782Z,155
2016-02-10T08:33:12.113Z,155
2016-02-10T08:34:12.835Z,160
2016-02-10T08:35:12.853Z,160
2016-02-10T08:36:12.714Z,165
2016-02-10T08:37:12.359Z,165
2016-02-10T08:38:13.861Z,170
2016-02-10T08:39:12.896Z,175
2016-02-10T08:40:11.962Z,180
2016-02-10T08:41:12.604Z,185
2016-02-10T08:42:12.700Z,185
2016-02-10T08:43:12.875Z,190
2016-02-10T08:44:12.800Z,190
2016-02-10T08:45:11.944Z,190
2016-02-10T08:46:12.743Z,190
2016-02-10T08:47:12.699Z,190
2016-02-10T08:48:12.781Z,195
2016-02-10T08:49:12.877Z,195
2016-02-10T08:50:12.824Z,195
2016-02-10T08:51:12.827Z,200
2016-02-10T08:52:12.797Z,200
2016-02-10T08:53:12.785Z,200
2016-02-10T08:54:12.913Z,205
2016-02-10T08:55:12.869Z,205
2016-02-10T08:56:12.809Z,200
2016-02-10T08:57:12.875Z,200
2016-02-10T08:58:13.112Z,205
2016-02-10T08:59:12.646Z,205
2016-02-10T09:00:11.867Z,205
2016-02-10T09:01:14.198Z,205
2016-02-10T09:02:12.999Z,210
2016-02-10T09:03:13.220Z,210
2016-02-10T09:04:12.989Z,220
2016-02-10T09:05:12.928Z,225
2016-02-10T09:06:12.979Z,225
2016-02-10T09:07:12.747Z,230
2016-02-10T09:08:13.140Z,225
2016-02-10T09:09:13.173Z,225
2016-02-10T09:10:12.770Z,220
2016-02-10T09:11:12.601Z,225
2016-02-10T09:12:12.681Z,225
2016-02-10T09:13:12.513Z,235
2016-02-10T09:14:12.688Z,235
2016-02-10T09:15:12.723Z,235
2016-02-10T09:16:12.881Z,235
2016-02-10T09:17:12.540Z,235
2016-02-10T09:18:12.636Z,245
2016-02-10T09:19:12.655Z,240
2016-02-10T09:20:12.849Z,245
2016-02-10T09:21:12.852Z,245
2016-02-10T09:22:12.808Z,245
2016-02-10T09:23:12.577Z,245
2016-02-10T09:24:12.813Z,250
2016-02-10T09:25:12.785Z,250
2016-02-10T09:26:12.819Z,250
2016-02-10T09:27:13.103Z,255
2016-02-10T09:28:12.809Z,250
2016-02-10T09:29:12.811Z,250
2016-02-10T09:30:12.657Z,250
2016-02-10T09:31:12.661Z,250
2016-02-10T09:32:12.649Z,255
2016-02-10T09:33:11.886Z,255
2016-02-10T09:34:12.701Z,255
2016-02-10T09:35:12.766Z,255
2016-02-10T09:36:11.910Z,255
2016-02-10T09:37:13.131Z,255
2016-02-10T09:38:12.774Z,260
2016-02-10T09:39:32.076Z,260
2016-02-10T09:40:12.857Z,265
2016-02-10T09:41:12.970Z,265
2016-02-10T09:42:12.411Z,270
2016-02-10T09:43:12.819Z,270
2016-02-10T09:44:12.728Z,275
2016-02-10T09:45:12.794Z,275
2016-02-10T09:46:12.781Z,280
2016-02-10T09:47:12.674Z,280
2016-02-10T09:48:13.161Z,285
2016-02-10T09:49:11.868Z,285
2016-02-10T09:50:12.810Z,285
2016-02-10T09:51:12.844Z,285
2016-02-10T09:52:12.737Z,280
2016-02-10T09:53:11.897Z,280
2016-02-10T09:54:12.870Z,280
2016-02-10T09:55:12.715Z,280
2016-02-10T09:56:13.375Z,280
2016-02-10T09:57:12.984Z,280
2016-02-10T09:58:12.002Z,280
2016-02-10T09:59:12.645Z,280
2016-02-10T10:00:12.742Z,280
2016-02-10T10:01:12.619Z,280
2016-02-10T10:02:13.138Z,280
2016-02-10T10:03:12.593Z,280
2016-02-10T10:04:12.815Z,280
2016-02-10T10:05:12.551Z,285
2016-02-10T10:06:12.853Z,285
2016-02-10T10:07:12.855Z,285
2016-02-10T10:08:12.873Z,290
2016-02-10T10:09:12.642Z,290
2016-02-10T10:10:12.863Z,295
2016-02-10T10:11:12.710Z,295
2016-02-10T10:12:12.166Z,295
2016-02-10T10:13:11.856Z,295
2016-02-10T10:14:26.612Z,295
2016-02-10T10:15:12.722Z,295
2016-02-10T10:16:12.615Z,295
2016-02-10T10:17:12.713Z,300
2016-02-10T10:18:12.450Z,295
2016-02-10T10:19:12.780Z,295
2016-02-10T10:20:12.533Z,295
2016-02-10T10:21:12.818Z,295
2016-02-10T10:22:12.431Z,295
2016-02-10T10:23:12.434Z,295
2016-02-10T10:24:12.531Z,300
2016-02-10T10:25:12.471Z,300
2016-02-10T10:26:12.740Z,305
2016-02-10T10:27:12.804Z,305
2016-02-10T10:28:12.714Z,310
2016-02-10T10:29:12.434Z,310
2016-02-10T10:30:12.719Z,310
2016-02-10T10:31:12.690Z,305
2016-02-10T10:32:12.490Z,300
2016-02-10T10:33:12.789Z,300
2016-02-10T10:34:12.559Z,295
2016-02-10T10:35:12.468Z,295
2016-02-10T10:36:12.658Z,295
2016-02-10T10:37:12.707Z,295
2016-02-10T10:38:12.679Z,295
2016-02-10T10:39:12.682Z,290
2016-02-10T10:40:12.700Z,285
2016-02-10T10:41:12.140Z,285
2016-02-10T10:42:12.159Z,280
2016-02-10T10:43:12.131Z,275
2016-02-10T10:44:12.117Z,275
2016-02-10T10:45:11.371Z,275
2016-02-10T10:46:12.014Z,275
2016-02-10T10:47:12.142Z,270
2016-02-10T10:48:12.144Z,270
2016-02-10T10:49:12.131Z,270
2016-02-10T10:50:12.339Z,270
2016-02-10T10:51:12.126Z,270
2016-02-10T10:52:12.130Z,270
2016-02-10T10:53:12.166Z,265
2016-02-10T10:54:12.122Z,265
2016-02-10T10:55:12.125Z,260
2016-02-10T10:56:12.190Z,260
2016-02-10T10:57:12.130Z,260
2016-02-10T10:58:13.399Z,255
2016-02-10T10:59:13.730Z,255
2016-02-10T11:00:12.530Z,255
2016-02-10T11:01:12.313Z,255
2016-02-10T11:02:12.535Z,250
2016-02-10T11:03:12.319Z,250
2016-02-10T11:04:12.478Z,250
2016-02-10T11:05:12.418Z,250
2016-02-10T11:06:12.562Z,255
2016-02-10T11:07:12.315Z,260
2016-02-10T11:08:12.458Z,260
2016-02-10T11:09:12.367Z,265
2016-02-10T11:10:12.651Z,270
2016-02-10T11:11:12.747Z,275
2016-02-10T11:12:12.484Z,280
2016-02-10T11:13:12.628Z,280
2016-02-10T11:14:11.848Z,280
2016-02-10T11:15:12.478Z,290
2016-02-10T11:16:12.559Z,285
2016-02-10T11:17:12.547Z,285
2016-02-10T11:18:11.753Z,290
2016-02-10T11:19:12.567Z,295
2016-02-10T11:20:12.354Z,295
2016-02-10T11:21:12.371Z,295
2016-02-10T11:22:12.562Z,295
2016-02-10T11:23:12.690Z,295
2016-02-10T11:24:12.444Z,295
2016-02-10T11:25:12.494Z,295
2016-02-10T11:26:12.340Z,290
2016-02-10T11:27:12.514Z,285
2016-02-10T11:28:12.236Z,280
2016-02-10T11:29:12.520Z,270
2016-02-10T11:30:12.413Z,265
2016-02-10T11:31:12.478Z,255
2016-02-10T11:32:12.545Z,250
2016-02-10T11:33:12.376Z,250
2016-02-10T11:34:12.487Z,240
2016-02-10T11:35:12.258Z,230
2016-02-10T11:36:12.136Z,225
2016-02-10T11:37:12.185Z,215
2016-02-10T11:38:13.516Z,210
2016-02-10T11:39:29.833Z,200
2016-02-10T11:40:12.380Z,195
2016-02-10T11:41:12.571Z,200
2016-02-10T11:42:12.527Z,205
2016-02-10T11:43:12.357Z,205
2016-02-10T11:44:12.516Z,215
2016-02-10T11:45:11.754Z,220
2016-02-10T11:46:12.522Z,225
2016-02-10T11:47:12.805Z,230
2016-02-10T11:48:12.433Z,230
2016-02-10T11:49:12.624Z,225
2016-02-10T11:50:12.782Z,230
2016-02-10T11:51:12.538Z,215
2016-02-10T11:52:12.479Z,205
2016-02-10T11:53:12.388Z,190
2016-02-10T11:54:12.657Z,180
2016-02-10T11:55:12.535Z,175
2016-02-10T11:56:12.505Z,175
2016-02-10T11:57:12.883Z,180
2016-02-10T11:58:12.652Z,190
2016-02-10T11:59:12.416Z,205
2016-02-10T12:00:12.405Z,215
2016-02-10T12:01:12.536Z,225
2016-02-10T12:02:12.805Z,235
2016-02-10T12:03:12.434Z,250
2016-02-10T12:04:12.379Z,260
2016-02-10T12:05:12.392Z,275
2016-02-10T12:06:12.593Z,285
2016-02-10T12:07:12.700Z,295
2016-02-10T12:08:12.496Z,300
2016-02-10T12:09:12.369Z,305
2016-02-10T12:10:12.621Z,305
2016-02-10T12:11:12.684Z,305
2016-02-10T12:12:12.513Z,305
2016-02-10T12:13:12.248Z,295
2016-02-10T12:14:12.312Z,295
2016-02-10T12:15:12.080Z,295
2016-02-10T12:16:12.082Z,285
2016-02-10T12:17:12.097Z,275
2016-02-10T12:18:13.241Z,270
2016-02-10T12:19:14.024Z,260
2016-02-10T12:20:12.542Z,255
2016-02-10T12:21:12.607Z,250
2016-02-10T12:22:12.343Z,245
2016-02-10T12:23:12.460Z,235
2016-02-10T12:24:12.634Z,230
2016-02-10T12:25:12.497Z,230
2016-02-10T12:26:11.593Z,225
2016-02-10T12:27:12.361Z,225
2016-02-10T12:28:12.364Z,230
2016-02-10T12:29:12.508Z,230
2016-02-10T12:30:12.353Z,235
2016-02-10T12:31:12.341Z,235
2016-02-10T12:32:12.750Z,240
2016-02-10T12:33:12.502Z,240
2016-02-10T12:34:12.600Z,260
2016-02-10T12:35:12.634Z,280
2016-02-10T12:36:12.231Z,295
2016-02-10T12:37:12.608Z,280
2016-02-10T12:38:12.220Z,275
2016-02-10T12:39:12.379Z,260
2016-02-10T12:40:12.366Z,255
2016-02-10T12:41:12.400Z,260
2016-02-10T12:42:12.419Z,280
2016-02-10T12:43:12.436Z,285
2016-02-10T12:44:13.111Z,275
2016-02-10T12:45:12.427Z,280
2016-02-10T12:46:12.194Z,280
2016-02-10T12:47:12.385Z,285
2016-02-10T12:48:12.638Z,295
2016-02-10T12:49:12.155Z,300
2016-02-10T12:50:12.409Z,280
2016-02-10T12:51:12.281Z,250
2016-02-10T12:52:12.409Z,235
2016-02-10T12:53:12.457Z,240
2016-02-10T12:54:12.476Z,270
2016-02-10T12:55:11.572Z,280
2016-02-10T12:56:12.559Z,285
2016-02-10T12:57:12.125Z,260
2016-02-10T12:58:12.081Z,240
2016-02-10T12:59:12.145Z,215
2016-02-10T13:00:13.523Z,200
2016-02-10T13:01:13.558Z,195
2016-02-10T13:02:12.107Z,195
2016-02-10T13:03:12.096Z,195
2016-02-10T13:04:12.629Z,190
2016-02-10T13:05:12.740Z,185
2016-02-10T13:06:12.697Z,175
2016-02-10T13:07:12.590Z,170
2016-02-10T13:08:12.655Z,170
2016-02-10T13:09:12.845Z,165
2016-02-10T13:10:12.647Z,165
2016-02-10T13:11:12.775Z,165
2016-02-10T13:12:12.730Z,170
2016-02-10T13:13:11.983Z,170
2016-02-10T13:14:12.455Z,175
2016-02-10T13:15:12.630Z,185
2016-02-10T13:16:12.319Z,190
2016-02-10T13:17:12.697Z,195
2016-02-10T13:18:12.560Z,195
2016-02-10T13:19:12.781Z,205
2016-02-10T13:20:12.784Z,205
2016-02-10T13:21:12.631Z,205
2016-02-10T13:22:12.664Z,210
2016-02-10T13:23:12.528Z,205
2016-02-10T13:24:12.608Z,205
2016-02-10T13:25:12.705Z,200
2016-02-10T13:26:12.723Z,200
2016-02-10T13:27:12.805Z,195
2016-02-10T13:28:12.760Z,190
2016-02-10T13:29:12.857Z,195
2016-02-10T13:30:12.657Z,195
2016-02-10T13:31:13.098Z,210
2016-02-10T13:32:12.710Z,225
2016-02-10T13:33:12.415Z,235
2016-02-10T13:34:12.793Z,220
2016-02-10T13:35:12.718Z,205
2016-02-10T13:36:12.690Z,200
2016-02-10T13:37:12.754Z,190
2016-02-10T13:38:11.960Z,200
2016-02-10T13:39:12.745Z,180
2016-02-10T13:40:12.716Z,185
2016-02-10T13:41:12.140Z,180
2016-02-10T13:42:12.674Z,170
2016-02-10T13:43:12.617Z,170
2016-02-10T13:44:12.729Z,160
2016-02-10T13:45:12.591Z,155
2016-02-10T13:46:12.017Z,145
2016-02-10T13:47:12.599Z,140
2016-02-10T13:48:12.757Z,140
2016-02-10T13:49:12.666Z,135
2016-02-10T13:50:12.746Z,135
2016-02-10T13:51:12.718Z,130
2016-02-10T13:52:12.690Z,125
2016-02-10T13:53:12.848Z,125
2016-02-10T13:54:12.649Z,125
2016-02-10T13:55:12.840Z,125
2016-02-10T13:56:12.655Z,125
2016-02-10T13:57:12.720Z,125
2016-02-10T13:58:12.645Z,130
2016-02-10T13:59:12.789Z,140
2016-02-10T14:00:12.681Z,150
2016-02-10T14:01:12.338Z,145
2016-02-10T14:02:13.292Z,135
2016-02-10T14:03:12.542Z,115
2016-02-10T14:04:12.802Z,105
2016-02-10T14:05:12.576Z,100
2016-02-10T14:06:13.925Z,95
2016-02-10T14:07:15.066Z,90
2016-02-10T14:08:12.972Z,90
2016-02-10T14:09:13.005Z,85
2016-02-10T14:10:12.556Z,85
2016-02-10T14:11:13.480Z,85
2016-02-10T14:12:12.327Z,80
2016-02-10T14:13:11.820Z,80
2016-02-10T14:14:12.435Z,75
2016-02-10T14:15:12.735Z,75
2016-02-10T14:16:12.482Z,70